createdAt,value
2022-10-17T00:00:13.715Z,9.45
2022-10-17T00:05:42.639Z,9.38
2022-10-17T00:11:09.914Z,9.90
2022-10-17T00:16:36.949Z,9.05
2022-10-17T00:22:01.916Z,9.10
2022-10-17T00:27:25.765Z,9.25
2022-10-17T00:32:49.692Z,9.15
2022-10-17T00:38:14.635Z,9.70
2022-10-17T00:43:53.033Z,9.93
2022-10-17T00:49:16.652Z,9.75
2022-10-17T00:54:46.875Z,9.13
2022-10-17T01:00:12.404Z,9.48
2022-10-17T01:05:36.802Z,9.60
2022-10-17T01:11:12.781Z,10.35
2022-10-17T01:16:43.243Z,9.63
2022-10-17T01:22:13.220Z,8.45
2022-10-17T01:27:56.555Z,8.63
2022-10-17T01:33:31.844Z,9.40
2022-10-17T01:39:03.333Z,9.55
2022-10-17T01:49:58.812Z,8.73
2022-10-17T01:55:26.441Z,8.05
2022-10-17T02:00:53.107Z,8.20
2022-10-17T02:06:19.400Z,8.95
2022-10-17T02:11:44.363Z,7.70
2022-10-17T02:17:16.634Z,7.68
2022-10-17T02:22:48.673Z,7.75
2022-10-17T02:28:20.644Z,6.80
2022-10-17T02:33:48.158Z,8.18
2022-10-17T02:39:14.597Z,8.15
2022-10-17T02:44:40.626Z,8.00
2022-10-17T02:50:06.858Z,8.13
2022-10-17T02:55:34.561Z,7.60
2022-10-17T03:00:59.626Z,7.95
2022-10-17T03:06:23.764Z,7.95
2022-10-17T03:11:48.796Z,7.68
2022-10-17T03:17:12.458Z,7.93
2022-10-17T03:22:36.566Z,7.07
2022-10-17T03:28:03.112Z,7.68
2022-10-17T03:33:26.819Z,6.72
2022-10-17T03:38:54.202Z,8.02
2022-10-17T03:44:19.717Z,7.68
2022-10-17T03:49:43.399Z,7.32
2022-10-17T03:55:08.070Z,7.90
2022-10-17T04:00:33.156Z,7.80
2022-10-17T04:05:59.743Z,8.57
2022-10-17T04:11:23.948Z,8.63
2022-10-17T04:16:50.267Z,7.72
2022-10-17T04:22:17.406Z,8.82
2022-10-17T04:27:41.077Z,7.30
2022-10-17T04:33:06.412Z,7.70
2022-10-17T04:38:30.812Z,7.97
2022-10-17T04:43:54.516Z,8.57
2022-10-17T04:49:20.082Z,8.93
2022-10-17T04:54:48.452Z,8.35
2022-10-17T05:00:13.019Z,8.20
2022-10-17T05:05:59.940Z,8.32
2022-10-17T05:11:25.705Z,8.50
2022-10-17T05:16:49.457Z,9.02
2022-10-17T05:22:14.617Z,9.15
2022-10-17T05:27:39.150Z,8.45
2022-10-17T05:33:03.591Z,9.63
2022-10-17T05:38:30.431Z,10.27
2022-10-17T05:43:54.726Z,9.95
2022-10-17T05:49:45.077Z,11.50
2022-10-17T05:55:12.095Z,11.98
2022-10-17T06:00:36.970Z,12.07
2022-10-17T06:06:05.226Z,12.68
2022-10-17T06:11:30.327Z,13.25
2022-10-17T06:16:53.958Z,15.15
2022-10-17T06:22:18.173Z,12.90
2022-10-17T06:27:44.730Z,15.57
2022-10-17T06:33:09.150Z,16.13
2022-10-17T06:38:33.207Z,16.48
2022-10-17T06:43:59.979Z,17.33
2022-10-17T06:49:42.050Z,15.88
2022-10-17T06:55:23.056Z,15.50
2022-10-17T07:06:33.245Z,14.73
2022-10-17T07:12:03.681Z,13.93
2022-10-17T07:17:29.063Z,12.80
2022-10-17T07:22:52.988Z,11.38
2022-10-17T07:28:17.344Z,10.77
2022-10-17T07:33:42.612Z,11.18
2022-10-17T07:39:06.397Z,10.35
2022-10-17T07:44:32.206Z,10.73
2022-10-17T07:49:57.790Z,9.60
2022-10-17T07:55:21.387Z,10.05
2022-10-17T08:00:48.312Z,10.57
2022-10-17T08:06:13.687Z,9.63
2022-10-17T08:11:37.364Z,9.98
2022-10-17T08:17:00.970Z,9.25
2022-10-17T08:22:26.019Z,9.10
2022-10-17T08:27:49.851Z,9.43
2022-10-17T08:33:13.475Z,9.15
2022-10-17T08:38:43.016Z,8.88
2022-10-17T08:44:16.404Z,9.83
2022-10-17T08:49:47.887Z,9.20
2022-10-17T09:00:52.418Z,8.77
2022-10-17T09:06:24.511Z,9.00
2022-10-17T09:12:03.373Z,8.57
2022-10-17T09:17:35.903Z,8.32
2022-10-17T09:23:03.186Z,8.85
2022-10-17T09:28:32.553Z,7.90
2022-10-17T09:33:58.261Z,7.57
2022-10-17T09:39:26.146Z,7.60
2022-10-17T09:44:56.562Z,7.05
2022-10-17T09:50:23.985Z,6.82
2022-10-17T09:55:50.490Z,5.60
2022-10-17T10:01:23.687Z,6.57
2022-10-17T10:07:03.879Z,6.18
2022-10-17T10:12:30.130Z,4.80
2022-10-17T10:17:55.256Z,4.15
2022-10-17T10:23:22.203Z,4.88
2022-10-17T10:28:53.728Z,4.53
2022-10-17T10:34:22.489Z,4.35
2022-10-17T10:39:50.760Z,3.97
2022-10-17T10:45:35.655Z,4.65
2022-10-17T10:51:09.041Z,4.15
2022-10-17T10:56:36.764Z,4.65
2022-10-17T11:02:05.346Z,4.25
2022-10-17T11:07:33.274Z,4.45
2022-10-17T11:13:01.716Z,4.47
2022-10-17T11:18:29.611Z,4.38
2022-10-17T11:24:02.259Z,3.70
2022-10-17T11:29:30.765Z,3.95
2022-10-17T11:34:59.083Z,4.53
2022-10-17T11:40:32.299Z,4.15
2022-10-17T11:46:00.705Z,4.40
2022-10-17T11:57:22.631Z,3.70
2022-10-17T12:02:52.387Z,4.53
2022-10-17T12:08:27.959Z,3.70
2022-10-17T12:13:57.282Z,3.70
2022-10-17T12:19:25.001Z,2.92
2022-10-17T12:25:00.867Z,3.08
2022-10-17T12:30:27.998Z,3.45
2022-10-17T12:35:53.114Z,2.95
2022-10-17T12:41:17.075Z,3.38
2022-10-17T12:46:52.059Z,4.00
2022-10-17T12:52:24.137Z,3.15
2022-10-17T12:57:56.636Z,3.50
2022-10-17T13:03:25.186Z,2.55
2022-10-17T13:08:55.560Z,3.33
2022-10-17T13:14:23.914Z,3.25
2022-10-17T13:19:48.912Z,3.00
2022-10-17T13:25:18.169Z,2.70
2022-10-17T13:30:49.616Z,3.30
2022-10-17T13:36:19.748Z,3.00
2022-10-17T13:41:43.627Z,3.30
2022-10-17T13:47:07.537Z,3.58
2022-10-17T13:52:32.737Z,3.55
2022-10-17T13:58:17.011Z,3.03
2022-10-17T14:03:48.619Z,2.53
2022-10-17T14:09:22.853Z,3.05
2022-10-17T14:15:09.678Z,3.33
2022-10-17T14:21:08.140Z,2.95
2022-10-17T14:26:21.893Z,3.05
2022-10-17T14:31:47.609Z,3.47
2022-10-17T14:37:12.685Z,2.95
2022-10-17T14:42:42.175Z,3.42
2022-10-17T14:48:11.667Z,3.47
2022-10-17T14:53:35.582Z,3.27
2022-10-17T14:59:02.693Z,3.38
2022-10-17T15:04:26.418Z,4.55
2022-10-17T15:09:51.664Z,4.25
2022-10-17T15:15:16.788Z,3.63
2022-10-17T15:20:40.559Z,3.60
2022-10-17T15:26:07.208Z,3.58
2022-10-17T15:31:32.542Z,3.92
2022-10-17T15:36:56.182Z,3.83
2022-10-17T15:42:20.754Z,4.13
2022-10-17T15:47:54.270Z,3.97
2022-10-17T15:53:17.855Z,4.88
2022-10-17T15:58:42.060Z,4.55
2022-10-17T16:04:07.739Z,5.38
2022-10-17T16:09:31.970Z,5.22
2022-10-17T16:15:00.257Z,4.50
2022-10-17T16:20:26.721Z,5.05
2022-10-17T16:25:51.955Z,5.82
2022-10-17T16:31:22.926Z,5.32
2022-10-17T16:36:48.838Z,5.60
2022-10-17T16:42:12.527Z,6.70
2022-10-17T16:47:36.533Z,6.47
2022-10-17T16:53:04.119Z,6.90
2022-10-17T16:58:32.739Z,6.82
2022-10-17T17:03:57.327Z,7.78
2022-10-17T17:09:23.520Z,7.95
2022-10-17T17:14:47.275Z,8.82
2022-10-17T17:20:11.734Z,9.50
2022-10-17T17:25:36.697Z,11.98
2022-10-17T17:31:00.562Z,12.93
2022-10-17T17:36:26.078Z,10.68
2022-10-17T17:41:51.053Z,9.50
2022-10-17T17:47:14.656Z,7.72
2022-10-17T17:52:40.254Z,8.45
2022-10-17T17:58:05.576Z,8.43
2022-10-17T18:03:29.299Z,7.35
2022-10-17T18:08:54.343Z,8.13
2022-10-17T18:14:23.800Z,7.57
2022-10-17T18:19:47.495Z,7.20
2022-10-17T18:25:11.377Z,7.40
2022-10-17T18:30:39.209Z,9.30
2022-10-17T18:36:07.472Z,9.05
2022-10-17T18:41:31.971Z,9.32
2022-10-17T18:47:02.951Z,9.95
2022-10-17T18:52:27.986Z,12.77
2022-10-17T18:57:53.046Z,14.40
2022-10-17T19:03:18.751Z,13.43
2022-10-17T19:08:43.531Z,15.48
2022-10-17T19:14:13.078Z,15.35
2022-10-17T19:19:38.335Z,15.93
2022-10-17T19:25:01.932Z,12.93
2022-10-17T19:30:25.619Z,12.80
2022-10-17T19:35:57.700Z,10.60
2022-10-17T19:41:22.762Z,10.27
2022-10-17T19:46:49.075Z,9.93
2022-10-17T19:52:15.317Z,8.60
2022-10-17T19:57:39.315Z,9.32
2022-10-17T20:03:03.471Z,8.93
2022-10-17T20:08:28.563Z,10.40
2022-10-17T20:13:52.817Z,12.60
2022-10-17T20:19:16.608Z,9.98
2022-10-17T20:24:42.116Z,9.80
2022-10-17T20:30:06.767Z,10.57
2022-10-17T20:35:30.381Z,9.45
2022-10-17T20:40:55.426Z,8.85
2022-10-17T20:46:34.993Z,8.98
2022-10-17T20:52:00.770Z,9.27
2022-10-17T20:57:25.965Z,8.93
2022-10-17T21:02:49.633Z,10.07
2022-10-17T21:08:13.237Z,9.75
2022-10-17T21:13:38.605Z,9.00
2022-10-17T21:19:02.736Z,8.57
2022-10-17T21:24:26.463Z,8.85
2022-10-17T21:29:52.049Z,9.38
2022-10-17T21:35:21.154Z,8.40
2022-10-17T21:40:48.777Z,9.00
2022-10-17T21:46:17.040Z,9.00
2022-10-17T21:51:42.271Z,9.75
2022-10-17T21:57:06.533Z,10.52
2022-10-17T22:02:31.798Z,13.07
2022-10-17T22:07:55.559Z,12.43
2022-10-17T22:13:19.219Z,11.40
2022-10-17T22:18:44.631Z,10.75
2022-10-17T22:24:11.559Z,11.30
2022-10-17T22:29:35.352Z,9.93
2022-10-17T22:35:00.324Z,10.43
2022-10-17T22:40:23.887Z,9.98
2022-10-17T22:45:53.128Z,11.50
2022-10-17T22:51:18.264Z,10.75
2022-10-17T22:56:41.924Z,9.82
2022-10-17T23:02:05.582Z,10.13
2022-10-17T23:07:30.611Z,9.45
2022-10-17T23:12:54.191Z,10.18
2022-10-17T23:18:17.802Z,10.02
2022-10-17T23:23:43.569Z,10.02
2022-10-17T23:29:07.520Z,12.65
2022-10-17T23:34:31.517Z,11.52
2022-10-17T23:39:56.463Z,11.50
2022-10-17T23:45:20.287Z,9.60
2022-10-17T23:50:44.344Z,11.82
2022-10-17T23:56:11.405Z,11.32
